Time;durP1;ratioP1;P1;durP2;ratioP2;P2;SDS_P1;SDS_P2;PMS_P1;PMS_P2;Temp;Humidity;BMP_temperature;BMP_pressure;BME280_temperature;BME280_humidity;BME280_pressure;Samples;Min_cycle;Max_cycle;Signal;HPM_P1;HPM_P2
2023/04/12 00:00:47;;;;;;;8.15;3.63;;;6.10;99.90;;;;;;5053938;28;20295;-71
2023/04/12 00:03:19;;;;;;;6.00;3.55;;;6.10;99.90;;;;;;5061287;28;20357;-70
2023/04/12 00:05:47;;;;;;;7.40;3.33;;;6.20;99.90;;;;;;5052142;28;20200;-70
2023/04/12 00:08:14;;;;;;;8.75;3.75;;;6.20;99.90;;;;;;5055140;28;20205;-69
2023/04/12 00:10:42;;;;;;;5.60;4.60;;;6.20;99.90;;;;;;5054054;28;20266;-70
2023/04/12 00:13:09;;;;;;;7.72;5.13;;;6.20;99.90;;;;;;5054723;28;20225;-70
2023/04/12 00:15:36;;;;;;;12.90;8.50;;;6.30;99.90;;;;;;5054184;28;20204;-70
2023/04/12 00:18:04;;;;;;;11.38;7.50;;;6.30;99.90;;;;;;5054482;28;20212;-70
2023/04/12 00:20:31;;;;;;;16.33;9.10;;;6.30;99.90;;;;;;5059445;28;20282;-71
2023/04/12 00:22:58;;;;;;;13.10;6.10;;;6.30;99.90;;;;;;5061326;28;20251;-70
2023/04/12 00:25:25;;;;;;;9.00;5.10;;;6.30;99.90;;;;;;5063028;28;20656;-69
2023/04/12 00:27:52;;;;;;;13.32;6.30;;;6.30;99.90;;;;;;5063799;28;20207;-70
2023/04/12 00:30:19;;;;;;;5.05;4.55;;;6.30;99.90;;;;;;5054612;28;20663;-70
2023/04/12 00:32:46;;;;;;;5.90;3.67;;;6.40;99.90;;;;;;5059620;28;20285;-72
2023/04/12 00:35:15;;;;;;;6.25;3.35;;;6.40;99.90;;;;;;5063925;28;20197;-70
2023/04/12 00:37:41;;;;;;;4.57;2.97;;;6.40;99.90;;;;;;5064031;28;20224;-69
2023/04/12 00:40:09;;;;;;;6.32;2.97;;;6.40;99.90;;;;;;5056713;28;20292;-70
2023/04/12 00:42:37;;;;;;;7.40;3.30;;;6.30;99.90;;;;;;5051316;28;20251;-69
2023/04/12 00:45:05;;;;;;;4.45;3.53;;;6.40;99.90;;;;;;5052984;28;20224;-69
2023/04/12 00:47:35;;;;;;;5.38;3.25;;;6.30;99.90;;;;;;5045592;28;20283;-70
2023/04/12 00:50:03;;;;;;;9.80;3.67;;;6.40;99.90;;;;;;5051709;28;20207;-70
2023/04/12 00:52:34;;;;;;;8.65;3.83;;;6.40;99.90;;;;;;5050316;28;20226;-70
2023/04/12 00:55:02;;;;;;;8.00;3.78;;;6.40;99.90;;;;;;5052033;28;20256;-70
2023/04/12 00:57:34;;;;;;;8.02;3.42;;;6.40;99.90;;;;;;5049095;28;20652;-70
2023/04/12 01:00:03;;;;;;;4.53;2.65;;;6.30;99.90;;;;;;5058398;28;20200;-70
2023/04/12 01:02:32;;;;;;;7.47;2.95;;;6.30;99.90;;;;;;5059826;28;20270;-69
2023/04/12 01:04:59;;;;;;;5.93;3.80;;;6.30;99.90;;;;;;5052120;28;20198;-70
2023/04/12 01:07:43;;;;;;;5.20;3.05;;;6.40;99.90;;;;;;5049611;28;20220;-69
2023/04/12 01:10:19;;;;;;;6.22;2.95;;;6.40;99.90;;;;;;5054285;28;20196;-71
2023/04/12 01:12:57;;;;;;;6.13;3.40;;;6.40;99.90;;;;;;5052664;28;20661;-72
2023/04/12 01:15:25;;;;;;;8.02;4.03;;;6.40;99.90;;;;;;5047376;28;20316;-70
2023/04/12 01:17:58;;;;;;;5.97;3.30;;;6.50;99.90;;;;;;5056548;28;20219;-69
2023/04/12 01:20:28;;;;;;;3.50;2.90;;;6.40;99.90;;;;;;5047807;28;20674;-71
2023/04/12 01:23:18;;;;;;;13.20;3.60;;;6.50;99.90;;;;;;5044128;28;20313;-70
2023/04/12 01:26:08;;;;;;;5.43;3.25;;;6.50;99.90;;;;;;5052242;28;20193;-71
2023/04/12 01:28:41;;;;;;;5.10;3.38;;;6.60;99.90;;;;;;5045571;28;20283;-70
2023/04/12 01:31:09;;;;;;;5.50;3.33;;;6.60;99.90;;;;;;5051263;28;20286;-70
2023/04/12 01:33:38;;;;;;;7.03;2.83;;;6.60;99.90;;;;;;5048955;28;20253;-70
2023/04/12 01:36:11;;;;;;;9.50;3.50;;;6.60;99.90;;;;;;5045850;28;20580;-70
2023/04/12 01:38:40;;;;;;;7.10;3.50;;;6.70;99.90;;;;;;5046766;28;20268;-70
2023/04/12 01:41:09;;;;;;;5.78;4.00;;;6.60;99.90;;;;;;5048348;28;20308;-70
2023/04/12 01:43:42;;;;;;;5.97;3.22;;;6.60;99.90;;;;;;5047041;28;20233;-70
2023/04/12 01:46:10;;;;;;;5.35;3.22;;;6.70;99.90;;;;;;5080530;28;20203;-70
2023/04/12 01:48:38;;;;;;;7.43;3.75;;;6.60;99.90;;;;;;5046134;28;20206;-72
2023/04/12 01:51:08;;;;;;;6.45;3.97;;;6.70;99.90;;;;;;5045723;28;20287;-71
2023/04/12 01:53:48;;;;;;;13.13;4.65;;;6.60;99.90;;;;;;5052097;28;20222;-71
2023/04/12 01:56:17;;;;;;;5.43;3.25;;;6.60;99.90;;;;;;5047790;28;20630;-70
2023/04/12 01:58:48;;;;;;;6.20;3.92;;;6.60;99.90;;;;;;5051668;28;20205;-69
2023/04/12 02:01:17;;;;;;;6.68;3.33;;;6.60;99.90;;;;;;5046075;28;20282;-71
2023/04/12 02:03:48;;;;;;;14.48;4.18;;;6.60;99.90;;;;;;5052191;28;20321;-71
2023/04/12 02:06:18;;;;;;;6.80;3.50;;;6.60;99.90;;;;;;5051120;28;20582;-69
2023/04/12 02:08:45;;;;;;;4.95;3.58;;;6.60;99.90;;;;;;5052700;28;20222;-70
2023/04/12 02:11:13;;;;;;;6.13;4.32;;;6.60;99.90;;;;;;5045415;28;20300;-70
2023/04/12 02:13:40;;;;;;;9.55;3.97;;;6.60;99.90;;;;;;5052104;28;20237;-70
2023/04/12 02:16:12;;;;;;;8.65;3.67;;;6.60;99.90;;;;;;5052798;28;20206;-70
2023/04/12 02:18:41;;;;;;;5.65;3.85;;;6.60;99.90;;;;;;5054809;28;20259;-71
2023/04/12 02:21:08;;;;;;;7.03;3.38;;;6.60;99.90;;;;;;5052120;28;20199;-71
2023/04/12 02:23:35;;;;;;;5.57;3.65;;;6.60;99.90;;;;;;5052847;28;20331;-71
2023/04/12 02:26:02;;;;;;;6.88;4.22;;;6.60;99.90;;;;;;5050179;28;20242;-69
2023/04/12 02:28:30;;;;;;;3.88;3.28;;;6.60;99.90;;;;;;5055364;28;20208;-70
2023/04/12 02:30:57;;;;;;;10.63;5.07;;;6.60;99.90;;;;;;5055679;28;20284;-70
2023/04/12 02:33:27;;;;;;;7.80;3.75;;;6.50;99.90;;;;;;5056327;28;20315;-70
2023/04/12 02:35:54;;;;;;;7.35;3.75;;;6.50;99.90;;;;;;5056146;28;20255;-72
2023/04/12 02:38:22;;;;;;;7.80;4.00;;;6.50;99.90;;;;;;5050330;28;20256;-71
2023/04/12 02:40:49;;;;;;;7.85;4.32;;;6.50;99.90;;;;;;5055165;28;20656;-68
2023/04/12 02:43:15;;;;;;;4.13;3.63;;;6.50;99.90;;;;;;5055430;28;20230;-70
2023/04/12 02:45:42;;;;;;;9.80;3.75;;;6.60;99.90;;;;;;5055870;28;20256;-71
2023/04/12 02:48:10;;;;;;;4.32;3.75;;;6.60;99.90;;;;;;5054802;28;20340;-71
2023/04/12 02:50:38;;;;;;;5.53;3.15;;;6.50;99.90;;;;;;5060019;28;20200;-70
2023/04/12 02:53:05;;;;;;;5.20;4.25;;;6.60;99.90;;;;;;5052208;28;20233;-68
2023/04/12 02:55:32;;;;;;;4.72;3.50;;;6.50;99.90;;;;;;5050530;28;20195;-68
2023/04/12 02:57:59;;;;;;;6.63;4.10;;;6.50;99.90;;;;;;5055485;28;20251;-69
2023/04/12 03:00:26;;;;;;;3.97;2.67;;;6.50;99.90;;;;;;5046668;28;20202;-70
2023/04/12 03:02:54;;;;;;;7.65;3.40;;;6.40;99.90;;;;;;5054808;28;20228;-69
2023/04/12 03:05:21;;;;;;;3.90;2.80;;;6.50;99.90;;;;;;5052364;28;20660;-70
2023/04/12 03:07:50;;;;;;;5.55;4.05;;;6.50;99.90;;;;;;5050907;28;20197;-71
2023/04/12 03:10:16;;;;;;;5.75;3.55;;;6.40;99.90;;;;;;5050071;28;20660;-69
2023/04/12 03:12:44;;;;;;;8.38;3.60;;;6.50;99.90;;;;;;5053804;28;20247;-69
2023/04/12 03:15:12;;;;;;;5.00;3.78;;;6.50;99.90;;;;;;5059043;28;20232;-70
2023/04/12 03:17:38;;;;;;;4.95;3.40;;;6.50;99.90;;;;;;5055092;28;20214;-71
2023/04/12 03:20:08;;;;;;;6.00;3.75;;;6.50;99.90;;;;;;5050445;28;20295;-69
2023/04/12 03:22:36;;;;;;;5.10;3.67;;;6.50;99.90;;;;;;5048376;28;20233;-71
2023/04/12 03:25:04;;;;;;;8.27;4.05;;;6.40;99.90;;;;;;5050097;28;20206;-69
2023/04/12 03:27:31;;;;;;;8.18;4.30;;;6.50;99.90;;;;;;5052482;28;20196;-70
2023/04/12 03:29:58;;;;;;;6.88;3.58;;;6.40;99.90;;;;;;5047194;28;20611;-71
2023/04/12 03:32:25;;;;;;;6.68;4.63;;;6.40;99.90;;;;;;5050240;28;20216;-70
2023/04/12 03:34:52;;;;;;;5.07;3.63;;;6.40;99.90;;;;;;5046019;28;20209;-71
2023/04/12 03:37:19;;;;;;;11.15;4.07;;;6.40;99.90;;;;;;5050003;28;20654;-71
2023/04/12 03:39:46;;;;;;;7.72;3.28;;;6.40;99.90;;;;;;5051397;28;20201;-70
2023/04/12 03:42:15;;;;;;;4.90;3.67;;;6.40;99.90;;;;;;5044713;28;20212;-70
2023/04/12 03:44:42;;;;;;;5.70;3.65;;;6.40;99.90;;;;;;5053501;28;20315;-71
2023/04/12 03:47:11;;;;;;;6.47;3.95;;;6.40;99.90;;;;;;5047163;28;20201;-70
2023/04/12 03:49:38;;;;;;;9.45;4.07;;;6.40;99.90;;;;;;5053581;28;20227;-69
2023/04/12 03:52:06;;;;;;;8.82;4.50;;;6.40;99.90;;;;;;5055260;28;20213;-70
2023/04/12 03:54:33;;;;;;;3.97;3.58;;;6.40;99.90;;;;;;5061564;28;20200;-71
2023/04/12 03:57:00;;;;;;;8.13;4.45;;;6.40;99.90;;;;;;5066426;28;20296;-70
2023/04/12 03:59:29;;;;;;;7.35;4.15;;;6.40;99.90;;;;;;5060472;28;20205;-71
2023/04/12 04:01:56;;;;;;;6.93;4.00;;;6.40;99.90;;;;;;5064105;28;20201;-70
2023/04/12 04:04:23;;;;;;;7.03;4.28;;;6.30;99.90;;;;;;5063337;28;20222;-70
2023/04/12 04:06:52;;;;;;;7.45;3.83;;;6.40;99.90;;;;;;5067235;28;20198;-69
2023/04/12 04:09:19;;;;;;;11.35;4.20;;;6.30;99.90;;;;;;5064474;28;20201;-70
2023/04/12 04:11:46;;;;;;;7.75;3.97;;;6.30;99.90;;;;;;5065122;28;20216;-70
2023/04/12 04:14:13;;;;;;;10.07;3.83;;;6.30;99.90;;;;;;5063857;28;20224;-70
2023/04/12 04:16:41;;;;;;;4.50;4.03;;;6.30;99.90;;;;;;5061808;28;20242;-70
2023/04/12 04:19:08;;;;;;;10.82;4.60;;;6.30;99.90;;;;;;5050648;28;20207;-70
2023/04/12 04:21:35;;;;;;;11.00;5.38;;;6.30;99.90;;;;;;5051258;28;20733;-69
2023/04/12 04:24:02;;;;;;;6.57;4.15;;;6.30;99.90;;;;;;5045446;28;20216;-71
2023/04/12 04:26:32;;;;;;;9.82;3.78;;;6.20;99.90;;;;;;5050346;28;20629;-71
2023/04/12 04:29:00;;;;;;;4.10;3.47;;;6.20;99.90;;;;;;5053638;28;20196;-71
2023/04/12 04:31:32;;;;;;;9.65;5.50;;;6.10;99.90;;;;;;5052696;28;20546;-71
2023/04/12 04:34:02;;;;;;;6.50;3.90;;;6.10;99.90;;;;;;5052767;28;20220;-70
2023/04/12 04:36:29;;;;;;;6.75;4.10;;;6.10;99.90;;;;;;5051620;28;20209;-70
2023/04/12 04:38:57;;;;;;;6.45;4.47;;;6.00;99.90;;;;;;5053826;28;20216;-69
2023/04/12 04:41:24;;;;;;;9.50;4.75;;;6.00;99.90;;;;;;5053821;28;20198;-68
2023/04/12 04:43:52;;;;;;;5.40;3.90;;;6.00;99.90;;;;;;5054375;28;20230;-70
2023/04/12 04:46:20;;;;;;;4.47;3.03;;;6.00;99.90;;;;;;5057018;28;20208;-71
2023/04/12 04:48:50;;;;;;;7.03;4.47;;;6.00;99.90;;;;;;5046728;28;20201;-71
2023/04/12 04:51:19;;;;;;;7.47;4.07;;;5.90;99.90;;;;;;5037656;28;20300;-69
2023/04/12 04:53:46;;;;;;;11.73;3.88;;;5.90;99.90;;;;;;5047202;28;20658;-68
2023/04/12 04:56:13;;;;;;;16.45;5.22;;;5.90;99.90;;;;;;5046795;28;20722;-70
2023/04/12 04:58:40;;;;;;;5.00;3.70;;;6.00;99.90;;;;;;5045760;28;20257;-72
2023/04/12 05:01:09;;;;;;;10.07;4.78;;;6.00;99.90;;;;;;5045573;28;20284;-70
2023/04/12 05:03:39;;;;;;;17.98;4.47;;;6.10;99.90;;;;;;5044598;28;20228;-70
2023/04/12 05:06:07;;;;;;;13.82;4.03;;;6.10;99.90;;;;;;5051767;28;20666;-70
2023/04/12 05:08:38;;;;;;;4.22;3.67;;;6.20;99.90;;;;;;5050863;28;20201;-69
2023/04/12 05:11:06;;;;;;;7.60;3.75;;;6.40;99.90;;;;;;5040783;28;20707;-68
2023/04/12 05:13:33;;;;;;;4.85;3.53;;;6.40;99.90;;;;;;5040643;28;20286;-70
2023/04/12 05:16:00;;;;;;;8.93;4.00;;;6.50;99.90;;;;;;5049289;28;20615;-70
2023/04/12 05:18:27;;;;;;;11.55;5.68;;;6.60;99.90;;;;;;5049611;28;20311;-70
2023/04/12 05:20:54;;;;;;;11.10;3.80;;;6.70;99.90;;;;;;5052335;28;20614;-74
2023/04/12 05:23:52;;;;;;;6.75;4.40;;;6.80;99.90;;;;;;5049026;28;20217;-70
2023/04/12 05:26:20;;;;;;;10.00;4.68;;;7.00;99.90;;;;;;5051791;28;20208;-70
2023/04/12 05:28:47;;;;;;;4.82;3.10;;;7.00;99.90;;;;;;5048513;28;20197;-71
2023/04/12 05:31:14;;;;;;;6.00;3.80;;;7.20;99.90;;;;;;5047014;28;20291;-70
2023/04/12 05:33:41;;;;;;;6.03;3.65;;;7.30;99.90;;;;;;5051928;28;20257;-70
2023/04/12 05:36:08;;;;;;;9.80;3.85;;;7.40;99.90;;;;;;5046274;28;20349;-70
2023/04/12 05:38:35;;;;;;;6.25;3.20;;;7.50;99.90;;;;;;5049647;28;20827;-69
2023/04/12 05:41:04;;;;;;;6.78;3.28;;;7.60;99.90;;;;;;5044423;28;20579;-70
2023/04/12 05:43:32;;;;;;;6.25;3.25;;;7.60;99.90;;;;;;5044902;28;20258;-71
2023/04/12 05:45:59;;;;;;;8.52;3.40;;;7.60;99.90;;;;;;5047925;28;20206;-70
2023/04/12 05:48:26;;;;;;;6.22;2.97;;;7.50;99.90;;;;;;5052207;28;20298;-72
2023/04/12 05:50:53;;;;;;;4.10;3.15;;;7.50;99.90;;;;;;5051454;28;20198;-72
2023/04/12 05:53:22;;;;;;;12.23;5.32;;;7.50;99.90;;;;;;5051542;28;20708;-72
2023/04/12 05:55:48;;;;;;;6.57;2.72;;;7.60;99.90;;;;;;5052868;28;20290;-72
2023/04/12 05:58:17;;;;;;;4.97;2.92;;;7.60;99.90;;;;;;5044753;28;20298;-71
2023/04/12 06:00:44;;;;;;;6.78;3.92;;;7.50;99.90;;;;;;5042730;28;20246;-70
2023/04/12 06:03:11;;;;;;;5.13;3.60;;;7.60;99.90;;;;;;5051302;28;20248;-70
2023/04/12 06:05:38;;;;;;;9.73;3.20;;;7.60;99.90;;;;;;5045123;28;20261;-70
2023/04/12 06:08:05;;;;;;;6.22;3.53;;;7.70;99.90;;;;;;5048961;28;20290;-70
2023/04/12 06:10:32;;;;;;;5.28;3.45;;;7.70;99.90;;;;;;5046588;28;20203;-69
2023/04/12 06:12:59;;;;;;;5.30;3.25;;;7.70;99.90;;;;;;5048338;28;20222;-69
2023/04/12 06:15:30;;;;;;;5.07;3.17;;;7.70;99.90;;;;;;5045555;28;20286;-68
2023/04/12 06:17:58;;;;;;;6.80;3.10;;;7.80;99.90;;;;;;5051003;28;20219;-73
2023/04/12 06:20:25;;;;;;;7.35;3.90;;;7.80;99.90;;;;;;5051480;28;20298;-69
2023/04/12 06:22:52;;;;;;;6.70;3.63;;;7.80;99.90;;;;;;5048086;28;20226;-70
2023/04/12 06:25:19;;;;;;;5.57;2.72;;;7.80;99.90;;;;;;5052447;28;20723;-68
2023/04/12 06:27:46;;;;;;;13.02;3.80;;;7.80;99.90;;;;;;5051560;28;20293;-69
2023/04/12 06:30:14;;;;;;;5.25;3.58;;;7.90;99.90;;;;;;5044250;28;20306;-69
2023/04/12 06:32:42;;;;;;;9.30;3.22;;;7.90;99.90;;;;;;5049093;28;20265;-69
2023/04/12 06:35:17;;;;;;;5.43;3.13;;;8.00;99.90;;;;;;5048604;28;20563;-70
2023/04/12 06:37:44;;;;;;;5.68;3.15;;;8.10;99.90;;;;;;5050998;28;20230;-70
2023/04/12 06:40:12;;;;;;;7.25;3.33;;;8.10;99.90;;;;;;5049508;28;20741;-68
2023/04/12 06:42:39;;;;;;;5.50;2.70;;;8.30;99.90;;;;;;5051845;28;20227;-69
2023/04/12 06:45:07;;;;;;;5.55;2.63;;;8.30;99.90;;;;;;5050151;28;20298;-68
2023/04/12 06:47:34;;;;;;;10.25;3.55;;;8.40;99.90;;;;;;5051749;28;20687;-69
2023/04/12 06:50:05;;;;;;;10.95;3.88;;;8.50;99.90;;;;;;5048722;28;20206;-69
2023/04/12 06:52:32;;;;;;;6.55;3.22;;;8.50;99.90;;;;;;5047578;28;20223;-71
2023/04/12 06:54:59;;;;;;;12.25;2.92;;;8.50;99.90;;;;;;5050143;28;20195;-69
2023/04/12 06:57:26;;;;;;;6.45;3.30;;;8.40;99.90;;;;;;5047449;28;20292;-69
2023/04/12 06:59:53;;;;;;;8.15;3.55;;;8.50;99.90;;;;;;5047614;28;20204;-71
2023/04/12 07:02:20;;;;;;;10.07;4.90;;;8.60;99.90;;;;;;5047687;28;20223;-70
2023/04/12 07:04:47;;;;;;;5.40;2.90;;;8.80;99.90;;;;;;5049043;28;20204;-71
2023/04/12 07:07:15;;;;;;;6.53;2.97;;;8.80;99.90;;;;;;5051486;28;20547;-71
2023/04/12 07:09:42;;;;;;;7.13;3.20;;;8.90;99.90;;;;;;5048090;28;20235;-70
2023/04/12 07:12:09;;;;;;;7.63;3.20;;;8.90;99.90;;;;;;5053326;28;20229;-70
2023/04/12 07:14:36;;;;;;;5.18;3.25;;;9.00;99.90;;;;;;5049094;28;21411;-70
2023/04/12 07:17:03;;;;;;;6.00;4.25;;;9.10;99.90;;;;;;5046477;28;20235;-70
2023/04/12 07:19:30;;;;;;;6.60;4.03;;;9.10;99.90;;;;;;5047834;28;20267;-69
2023/04/12 07:21:57;;;;;;;12.38;3.17;;;9.00;99.90;;;;;;5047052;28;20199;-70
2023/04/12 07:24:26;;;;;;;6.20;3.33;;;9.10;99.90;;;;;;5051835;28;20408;-71
2023/04/12 07:26:54;;;;;;;5.53;2.53;;;9.20;99.90;;;;;;5051149;28;20200;-68
2023/04/12 07:29:21;;;;;;;5.90;3.20;;;9.40;99.90;;;;;;5051468;28;20230;-71
2023/04/12 07:31:48;;;;;;;4.95;2.90;;;9.80;99.90;;;;;;5051678;28;20559;-71
2023/04/12 07:34:16;;;;;;;10.65;4.22;;;10.00;99.90;;;;;;5052748;28;20224;-70
2023/04/12 07:36:43;;;;;;;7.13;3.05;;;10.30;99.90;;;;;;5048926;28;20208;-70
2023/04/12 07:39:12;;;;;;;5.55;3.70;;;10.50;99.90;;;;;;5050729;28;20215;-71
2023/04/12 07:41:57;;;;;;;7.03;2.92;;;10.60;99.90;;;;;;5050346;28;20202;-71
2023/04/12 07:44:41;;;;;;;15.60;2.90;;;10.70;99.90;;;;;;5060594;28;20761;-69
2023/04/12 07:47:07;;;;;;;8.38;3.08;;;10.60;99.90;;;;;;5055141;28;20205;-70
2023/04/12 07:49:35;;;;;;;8.40;4.65;;;10.50;99.90;;;;;;5051549;28;20198;-69
2023/04/12 07:52:01;;;;;;;8.05;2.67;;;10.50;99.90;;;;;;5054558;28;20214;-71
2023/04/12 07:54:28;;;;;;;7.70;3.42;;;10.40;99.90;;;;;;5050332;28;20232;-69
2023/04/12 07:57:01;;;;;;;13.10;3.88;;;10.40;99.90;;;;;;5053851;28;20202;-69
2023/04/12 07:59:28;;;;;;;7.05;3.05;;;10.50;99.90;;;;;;5050955;28;20215;-70
2023/04/12 08:01:55;;;;;;;6.50;3.00;;;10.50;99.90;;;;;;5058278;28;20208;-69
2023/04/12 08:04:26;;;;;;;3.92;3.10;;;10.40;99.90;;;;;;5049596;28;20252;-71
2023/04/12 08:06:53;;;;;;;5.97;2.60;;;10.60;99.90;;;;;;5043101;28;20238;-72
2023/04/12 08:09:20;;;;;;;4.97;2.88;;;10.90;99.90;;;;;;5054221;28;20628;-69
2023/04/12 08:11:47;;;;;;;6.38;2.53;;;10.90;99.90;;;;;;5055119;28;20207;-70
2023/04/12 08:14:16;;;;;;;6.07;4.00;;;11.10;99.90;;;;;;5053352;28;20279;-70
2023/04/12 08:16:42;;;;;;;4.82;2.22;;;11.10;99.90;;;;;;5049621;28;20216;-71
2023/04/12 08:19:10;;;;;;;6.25;2.47;;;11.20;99.90;;;;;;5053795;28;20245;-70
2023/04/12 08:21:37;;;;;;;4.13;2.40;;;11.30;99.90;;;;;;5050141;28;20210;-69
2023/04/12 08:24:04;;;;;;;5.05;2.50;;;11.40;99.90;;;;;;5053319;28;20218;-71
2023/04/12 08:26:31;;;;;;;5.60;3.92;;;11.40;99.90;;;;;;5053524;28;20198;-71
2023/04/12 08:28:58;;;;;;;8.38;2.65;;;11.50;99.90;;;;;;5055334;28;20220;-71
2023/04/12 08:31:26;;;;;;;7.05;2.85;;;11.30;99.90;;;;;;5050501;28;20280;-70
2023/04/12 08:33:53;;;;;;;7.38;3.13;;;11.20;99.90;;;;;;5053688;28;20307;-73
2023/04/12 08:36:21;;;;;;;7.90;3.00;;;11.10;99.90;;;;;;5053552;28;20293;-71
2023/04/12 08:38:51;;;;;;;5.00;2.90;;;10.80;99.90;;;;;;5053498;28;20245;-71
2023/04/12 08:41:18;;;;;;;5.55;3.38;;;10.80;99.90;;;;;;5050952;28;20294;-71
2023/04/12 08:43:46;;;;;;;7.13;2.88;;;10.80;99.90;;;;;;5050108;28;20247;-72
2023/04/12 08:46:15;;;;;;;9.00;3.97;;;10.70;99.90;;;;;;5047911;28;20202;-73
2023/04/12 08:48:45;;;;;;;4.88;2.80;;;10.70;99.90;;;;;;5041889;28;20195;-70
2023/04/12 08:51:15;;;;;;;8.40;4.50;;;10.60;99.90;;;;;;5042319;28;20663;-73
2023/04/12 08:53:42;;;;;;;4.05;2.97;;;10.60;99.90;;;;;;5042006;28;20709;-70
2023/04/12 08:56:11;;;;;;;7.82;4.28;;;10.50;99.90;;;;;;5038638;28;20296;-72
2023/04/12 08:58:39;;;;;;;10.63;3.40;;;10.50;99.90;;;;;;5044986;28;20271;-70
2023/04/12 09:01:12;;;;;;;4.60;3.30;;;10.40;99.90;;;;;;5047462;28;20196;-70
2023/04/12 09:03:39;;;;;;;5.75;2.75;;;10.40;99.90;;;;;;5048727;28;20228;-71
2023/04/12 09:06:08;;;;;;;6.35;3.05;;;10.30;99.90;;;;;;5052722;28;20685;-71
2023/04/12 09:08:35;;;;;;;15.55;3.83;;;10.40;99.90;;;;;;5049372;28;20201;-70
2023/04/12 09:11:02;;;;;;;5.50;3.08;;;10.40;99.90;;;;;;5048347;28;20328;-71
2023/04/12 09:13:34;;;;;;;6.03;3.70;;;10.30;99.90;;;;;;5047346;28;20737;-70
2023/04/12 09:16:01;;;;;;;6.50;3.53;;;10.40;99.90;;;;;;5048185;28;20288;-71
2023/04/12 09:18:30;;;;;;;4.75;2.42;;;10.50;99.90;;;;;;5051214;28;20231;-68
2023/04/12 09:21:10;;;;;;;4.55;2.90;;;10.60;99.90;;;;;;5050955;28;20432;-71
2023/04/12 09:23:37;;;;;;;9.10;2.72;;;10.70;99.90;;;;;;5054702;28;20303;-75
2023/04/12 09:26:05;;;;;;;6.38;2.90;;;10.80;99.90;;;;;;5057095;28;20288;-70
2023/04/12 09:28:32;;;;;;;6.38;2.70;;;10.80;99.90;;;;;;5052633;28;20634;-70
2023/04/12 09:31:02;;;;;;;6.32;2.85;;;10.90;99.90;;;;;;5052734;28;20209;-68
2023/04/12 09:33:35;;;;;;;4.50;3.17;;;11.10;99.90;;;;;;5053991;28;20230;-71
2023/04/12 09:36:05;;;;;;;8.77;2.70;;;11.00;99.90;;;;;;5053638;28;20202;-71
2023/04/12 09:38:35;;;;;;;5.90;2.30;;;11.00;99.90;;;;;;5051312;28;20658;-71
2023/04/12 09:41:17;;;;;;;3.85;3.00;;;11.10;99.90;;;;;;5047302;28;20225;-72
2023/04/12 09:43:44;;;;;;;4.68;2.60;;;10.90;99.90;;;;;;5049414;28;20308;-72
2023/04/12 09:46:12;;;;;;;8.13;3.70;;;10.80;99.90;;;;;;5050955;28;20201;-69
2023/04/12 09:48:42;;;;;;;8.60;2.80;;;10.60;99.90;;;;;;5054180;28;20206;-70
2023/04/12 09:51:09;;;;;;;7.43;3.08;;;10.70;99.90;;;;;;5064419;28;20205;-71
2023/04/12 09:53:40;;;;;;;7.82;3.90;;;10.60;99.90;;;;;;5054413;28;20271;-71
2023/04/12 09:56:09;;;;;;;12.93;7.05;;;10.60;99.90;;;;;;5062575;28;20214;-72
2023/04/12 09:58:38;;;;;;;5.90;3.35;;;10.70;99.90;;;;;;5053106;28;20201;-72
2023/04/12 10:01:08;;;;;;;4.80;3.47;;;10.80;99.90;;;;;;5058425;28;20283;-70
2023/04/12 10:03:35;;;;;;;7.32;3.63;;;10.70;99.90;;;;;;5052094;28;20300;-69
2023/04/12 10:06:03;;;;;;;4.35;2.40;;;10.60;99.90;;;;;;5050623;28;20652;-71
2023/04/12 10:08:31;;;;;;;3.70;2.50;;;10.70;99.90;;;;;;5052476;28;20644;-71
2023/04/12 10:11:01;;;;;;;5.43;2.17;;;10.80;99.90;;;;;;5051695;28;20575;-70
2023/04/12 10:13:28;;;;;;;6.35;2.55;;;10.70;99.90;;;;;;5052519;28;20245;-69
2023/04/12 10:15:56;;;;;;;3.50;2.75;;;10.70;99.90;;;;;;5049555;28;20288;-73
2023/04/12 10:18:23;;;;;;;5.88;3.42;;;10.60;99.90;;;;;;5049479;28;20267;-71
2023/04/12 10:20:50;;;;;;;8.65;3.08;;;10.60;99.90;;;;;;5047666;28;20217;-71
2023/04/12 10:23:18;;;;;;;3.88;2.65;;;10.50;99.90;;;;;;5052315;28;20232;-71
2023/04/12 10:25:48;;;;;;;6.30;2.00;;;10.50;99.90;;;;;;5050291;28;20277;-72
2023/04/12 10:28:20;;;;;;;3.53;2.28;;;10.50;99.90;;;;;;5042201;28;20217;-69
2023/04/12 10:30:48;;;;;;;3.40;2.60;;;10.40;99.90;;;;;;5053326;28;20202;-71
2023/04/12 10:33:16;;;;;;;5.90;2.33;;;10.30;99.90;;;;;;5045706;28;20227;-69
2023/04/12 10:35:55;;;;;;;3.08;2.38;;;10.30;99.90;;;;;;5043167;28;20609;-72
2023/04/12 10:38:23;;;;;;;5.00;2.78;;;10.20;99.90;;;;;;5043178;28;20285;-72
2023/04/12 10:41:13;;;;;;;5.40;3.28;;;10.20;99.90;;;;;;5050580;28;20400;-72
2023/04/12 10:43:43;;;;;;;3.30;2.38;;;10.20;99.90;;;;;;5048425;28;20278;-71
2023/04/12 10:46:52;;;;;;;6.47;3.05;;;10.20;99.90;;;;;;5047588;28;20729;-70
2023/04/12 10:49:19;;;;;;;5.55;3.85;;;10.20;99.90;;;;;;5043670;28;20231;-71
2023/04/12 10:52:12;;;;;;;5.55;2.67;;;10.40;99.90;;;;;;5043158;28;20209;-69
2023/04/12 10:54:39;;;;;;;4.85;2.95;;;10.40;99.90;;;;;;5042449;28;20205;-71
2023/04/12 10:57:07;;;;;;;4.13;2.45;;;10.50;99.90;;;;;;5049920;28;20292;-73
2023/04/12 10:59:55;;;;;;;5.55;2.70;;;10.50;99.90;;;;;;5046291;28;20267;-72
2023/04/12 11:02:22;;;;;;;4.15;2.58;;;10.60;99.90;;;;;;5052609;28;20565;-72
2023/04/12 11:05:07;;;;;;;9.18;6.20;;;10.60;99.90;;;;;;5045760;28;20227;-71
2023/04/12 11:07:40;;;;;;;8.45;3.30;;;10.40;99.90;;;;;;5043964;28;20232;-73
2023/04/12 11:10:14;;;;;;;6.45;2.75;;;10.40;99.90;;;;;;5049094;28;20228;-72
2023/04/12 11:12:42;;;;;;;4.07;2.20;;;10.50;99.90;;;;;;5055489;28;20286;-73
2023/04/12 11:15:13;;;;;;;2.53;2.25;;;10.50;99.90;;;;;;5054324;28;20250;-74
2023/04/12 11:17:40;;;;;;;6.60;2.50;;;10.70;99.90;;;;;;5051266;28;20227;-72
2023/04/12 11:20:12;;;;;;;7.55;2.95;;;10.70;99.90;;;;;;5045969;28;20590;-73
2023/04/12 11:22:40;;;;;;;5.88;3.00;;;10.50;99.90;;;;;;5053639;28;20230;-72
2023/04/12 11:25:07;;;;;;;5.45;2.50;;;10.60;99.90;;;;;;5051925;28;20197;-72
2023/04/12 11:27:36;;;;;;;9.20;2.90;;;10.70;99.90;;;;;;5053859;28;20197;-72
2023/04/12 11:30:04;;;;;;;6.25;2.25;;;10.50;99.90;;;;;;5060415;28;20199;-72
2023/04/12 11:32:34;;;;;;;2.72;2.20;;;10.60;99.90;;;;;;5048554;28;20244;-72
2023/04/12 11:35:01;;;;;;;3.28;2.55;;;10.60;99.90;;;;;;5050287;28;20201;-73
2023/04/12 11:37:30;;;;;;;3.47;2.78;;;10.60;99.90;;;;;;5048750;28;20220;-73
2023/04/12 11:39:58;;;;;;;4.65;3.28;;;10.70;99.90;;;;;;5049919;28;20751;-72
2023/04/12 11:42:28;;;;;;;2.85;2.10;;;10.70;99.90;;;;;;5049558;28;20218;-72
2023/04/12 11:44:56;;;;;;;3.95;3.05;;;10.60;99.90;;;;;;5051063;28;20290;-71
2023/04/12 11:47:24;;;;;;;5.18;2.80;;;10.70;99.90;;;;;;5055172;28;20193;-74
2023/04/12 11:49:54;;;;;;;4.05;2.88;;;10.70;99.90;;;;;;5051204;28;20223;-73
2023/04/12 11:52:27;;;;;;;2.90;2.20;;;10.60;99.90;;;;;;5049046;28;20288;-73
2023/04/12 11:54:57;;;;;;;7.00;2.47;;;10.70;99.90;;;;;;5053188;28;20197;-73
2023/04/12 11:57:25;;;;;;;6.13;2.75;;;10.70;99.90;;;;;;5052906;28;20208;-74
2023/04/12 11:59:58;;;;;;;5.00;3.17;;;10.80;99.90;;;;;;5050907;28;20222;-75
2023/04/12 12:02:26;;;;;;;2.97;2.67;;;10.90;99.90;;;;;;5054707;28;20226;-73
2023/04/12 12:04:55;;;;;;;2.85;2.25;;;10.70;99.90;;;;;;5050088;28;20206;-73
2023/04/12 12:07:23;;;;;;;8.70;3.97;;;10.50;99.90;;;;;;5054588;28;20199;-74
2023/04/12 12:09:50;;;;;;;3.60;2.70;;;10.60;99.90;;;;;;5053367;28;20200;-73
2023/04/12 12:12:19;;;;;;;3.00;2.80;;;10.60;99.90;;;;;;5045284;28;20196;-75
2023/04/12 12:14:47;;;;;;;4.47;2.95;;;10.60;99.90;;;;;;5062632;28;20200;-73
2023/04/12 12:17:15;;;;;;;3.25;2.75;;;10.60;99.90;;;;;;5053483;28;20203;-74
2023/04/12 12:19:45;;;;;;;6.85;3.00;;;10.70;99.90;;;;;;5050521;28;20224;-73
2023/04/12 12:22:16;;;;;;;4.72;2.85;;;10.70;99.90;;;;;;5055353;28;20201;-73
2023/04/12 12:25:02;;;;;;;3.38;2.95;;;10.80;99.90;;;;;;5055273;28;20204;-73
2023/04/12 12:27:36;;;;;;;5.10;2.90;;;10.80;99.90;;;;;;5051078;28;20695;-73
2023/04/12 12:30:04;;;;;;;12.18;4.78;;;10.90;99.90;;;;;;5053488;28;20642;-74
2023/04/12 12:32:34;;;;;;;5.78;2.90;;;10.90;99.90;;;;;;5055639;28;20244;-72
2023/04/12 12:35:04;;;;;;;3.75;3.05;;;11.00;99.90;;;;;;5049427;28;20615;-74
2023/04/12 12:37:32;;;;;;;6.30;2.78;;;11.00;99.90;;;;;;5058411;28;20201;-74
2023/04/12 12:40:12;;;;;;;4.95;3.70;;;11.10;99.90;;;;;;5055495;28;20212;-73
2023/04/12 12:42:46;;;;;;;5.47;3.13;;;11.10;99.90;;;;;;5052982;28;20300;-73
2023/04/12 12:45:13;;;;;;;5.82;2.85;;;11.20;99.90;;;;;;5053554;28;20238;-73
2023/04/12 12:47:47;;;;;;;9.40;3.38;;;11.10;99.90;;;;;;5058484;28;20230;-73
2023/04/12 12:50:16;;;;;;;5.50;3.42;;;11.10;99.90;;;;;;5063436;28;20206;-75
2023/04/12 12:52:45;;;;;;;3.20;2.90;;;11.00;99.90;;;;;;5059709;28;20224;-73
2023/04/12 12:55:12;;;;;;;8.25;3.58;;;11.00;99.90;;;;;;5062586;28;20212;-74
2023/04/12 12:57:39;;;;;;;5.28;3.55;;;11.00;99.90;;;;;;5066153;28;20572;-73
2023/04/12 13:00:08;;;;;;;6.65;3.50;;;11.00;99.90;;;;;;5061672;28;20218;-72